createdAt,value
2022-07-25T00:02:30.234Z,61.16
2022-07-25T00:19:21.848Z,60.91
2022-07-25T00:45:21.660Z,61.34
2022-07-25T00:51:01.710Z,61.42
2022-07-25T00:54:04.641Z,61.54
2022-07-25T01:00:24.819Z,61.94
2022-07-25T01:02:58.057Z,61.94
2022-07-25T01:13:03.883Z,62.51
2022-07-25T01:16:02.614Z,62.79
2022-07-25T01:21:59.323Z,63.12
2022-07-25T01:24:26.139Z,63.34
2022-07-25T01:26:52.814Z,63.62
2022-07-25T01:29:19.455Z,64.04
2022-07-25T01:31:46.364Z,64.32
2022-07-25T01:34:13.086Z,64.19
2022-07-25T01:36:39.768Z,64.22
2022-07-25T01:39:09.034Z,64.41
2022-07-25T01:41:35.857Z,64.67
2022-07-25T01:44:02.740Z,64.78
2022-07-25T01:46:29.945Z,64.66
2022-07-25T01:48:56.770Z,64.93
2022-07-25T01:51:23.654Z,65.36
2022-07-25T01:53:53.433Z,65.77
2022-07-25T01:56:22.506Z,65.55
2022-07-25T01:58:49.401Z,65.53
2022-07-25T02:01:21.842Z,65.57
2022-07-25T02:04:04.387Z,65.95
2022-07-25T02:06:49.904Z,66.40
2022-07-25T02:09:43.402Z,66.92
2022-07-25T02:12:24.954Z,66.99
2022-07-25T02:15:03.549Z,67.44
2022-07-25T02:17:49.685Z,67.85
2022-07-25T02:20:37.336Z,67.95
2022-07-25T02:23:26.588Z,68.16
2022-07-25T02:26:06.058Z,68.16
2022-07-25T02:29:16.530Z,68.56
2022-07-25T02:42:50.401Z,69.37
2022-07-25T02:45:34.742Z,69.85
2022-07-25T02:48:32.385Z,70.27
2022-07-25T02:51:20.974Z,70.20
2022-07-25T02:59:38.577Z,70.45
2022-07-25T03:02:16.387Z,70.42
2022-07-25T03:05:00.983Z,70.43
2022-07-25T03:08:02.266Z,70.34
2022-07-25T03:27:22.753Z,71.89
2022-07-25T03:33:09.026Z,71.68
2022-07-25T03:38:57.474Z,71.41
2022-07-25T03:41:35.890Z,71.60
2022-07-25T03:44:11.219Z,71.56
2022-07-25T03:47:20.355Z,71.21
2022-07-25T03:56:53.607Z,71.50
2022-07-25T03:59:26.716Z,71.78
2022-07-25T04:08:45.622Z,71.58
2022-07-25T04:12:16.855Z,71.76
2022-07-25T04:15:32.812Z,71.51
2022-07-25T04:25:22.490Z,71.50
2022-07-25T04:37:16.156Z,71.03
2022-07-25T04:39:42.895Z,71.28
2022-07-25T04:42:09.530Z,71.23
2022-07-25T04:44:36.596Z,71.33
2022-07-25T04:47:03.662Z,71.65
2022-07-25T04:49:30.329Z,71.36
2022-07-25T04:51:57.021Z,71.21
2022-07-25T04:54:25.302Z,71.52
2022-07-25T04:56:52.296Z,71.35
2022-07-25T04:59:19.140Z,71.52
2022-07-25T05:01:46.153Z,71.22
2022-07-25T05:04:12.920Z,71.00
2022-07-25T05:06:43.063Z,71.37
2022-07-25T05:12:53.634Z,71.10
2022-07-25T05:15:25.911Z,71.35
2022-07-25T05:17:53.032Z,71.31
2022-07-25T05:20:19.890Z,71.46
2022-07-25T05:22:48.601Z,71.33
2022-07-25T05:25:38.437Z,71.47
2022-07-25T05:28:29.005Z,71.25
2022-07-25T05:30:56.205Z,72.09
2022-07-25T05:33:23.210Z,71.98
2022-07-25T05:35:56.850Z,72.26
2022-07-25T05:38:23.850Z,72.36
2022-07-25T05:40:58.631Z,72.33
2022-07-25T05:43:27.024Z,72.10
2022-07-25T05:46:00.488Z,71.91
2022-07-25T05:48:31.488Z,72.09
2022-07-25T05:51:10.422Z,71.92
2022-07-25T05:53:45.862Z,71.72
2022-07-25T05:56:14.249Z,72.01
2022-07-25T05:58:45.277Z,71.87
2022-07-25T06:01:20.910Z,71.94
2022-07-25T06:03:47.870Z,71.82
2022-07-25T06:06:20.989Z,71.78
2022-07-25T06:08:47.910Z,71.81
2022-07-25T06:11:21.746Z,72.12
2022-07-25T06:13:54.061Z,72.02
2022-07-25T06:16:28.589Z,72.07
2022-07-25T06:18:55.901Z,71.89
2022-07-25T06:21:37.362Z,71.84
2022-07-25T06:24:08.771Z,72.22
2022-07-25T06:26:59.307Z,72.19
2022-07-25T06:29:31.627Z,72.12
2022-07-25T06:32:15.914Z,72.22
2022-07-25T06:34:43.179Z,72.17
2022-07-25T06:37:09.920Z,72.53
2022-07-25T06:39:36.725Z,72.57
2022-07-25T06:42:03.688Z,72.30
2022-07-25T06:44:44.625Z,72.45
2022-07-25T06:47:11.940Z,71.88
2022-07-25T06:49:39.176Z,72.01
2022-07-25T06:52:05.969Z,71.63
2022-07-25T06:54:32.835Z,71.36
2022-07-25T06:56:59.513Z,71.21
2022-07-25T06:59:26.416Z,71.48
2022-07-25T07:01:54.717Z,71.25
2022-07-25T07:04:21.421Z,71.02
2022-07-25T07:06:48.126Z,70.55
2022-07-25T07:09:14.973Z,70.46
2022-07-25T07:11:41.698Z,69.92
2022-07-25T07:14:08.674Z,69.79
2022-07-25T07:16:35.914Z,69.30
2022-07-25T07:19:04.623Z,69.32
2022-07-25T07:21:31.715Z,68.67
2022-07-25T07:23:58.532Z,68.31
2022-07-25T07:26:25.296Z,67.02
2022-07-25T07:28:52.215Z,66.77
2022-07-25T07:31:19.277Z,66.66
2022-07-25T07:33:46.357Z,65.57
2022-07-25T07:36:14.606Z,65.16
2022-07-25T07:38:41.424Z,64.69
2022-07-25T07:41:08.255Z,64.71
2022-07-25T07:43:34.967Z,63.89
2022-07-25T07:46:02.014Z,62.63
2022-07-25T07:55:10.127Z,58.94
2022-07-25T07:57:48.811Z,58.96
2022-07-25T08:00:32.007Z,57.15
2022-07-25T08:03:22.098Z,57.93
2022-07-25T08:05:51.975Z,57.43
2022-07-25T08:08:24.129Z,57.66
2022-07-25T08:11:15.807Z,57.59
2022-07-25T08:13:53.870Z,57.85
2022-07-25T08:16:24.210Z,57.90
2022-07-25T08:18:56.744Z,58.47
2022-07-25T08:21:28.638Z,58.27
2022-07-25T08:23:56.729Z,59.13
2022-07-25T08:26:25.479Z,60.03
2022-07-25T08:29:11.108Z,60.46
2022-07-25T08:31:40.563Z,60.34
2022-07-25T08:34:07.873Z,61.01
2022-07-25T08:37:04.112Z,61.05
2022-07-25T08:39:35.494Z,60.40
2022-07-25T08:42:11.441Z,60.59
2022-07-25T08:44:55.976Z,60.91
2022-07-25T08:47:30.352Z,61.19
2022-07-25T08:50:13.961Z,61.52
2022-07-25T08:53:35.561Z,61.48
2022-07-25T08:56:18.850Z,61.66
2022-07-25T08:58:50.768Z,61.39
2022-07-25T09:01:20.876Z,61.52
2022-07-25T09:03:50.698Z,61.12
2022-07-25T09:06:43.837Z,60.81
2022-07-25T09:09:36.784Z,60.88
2022-07-25T09:15:09.145Z,61.81
2022-07-25T09:18:03.804Z,61.26
2022-07-25T09:20:53.713Z,61.38
2022-07-25T09:23:42.768Z,61.40
2022-07-25T09:26:16.574Z,61.87
2022-07-25T09:29:16.027Z,60.43
2022-07-25T09:32:17.471Z,60.98
2022-07-25T09:34:50.468Z,61.54
2022-07-25T09:40:26.312Z,64.81
2022-07-25T09:47:00.529Z,67.17
2022-07-25T09:49:45.378Z,67.04
2022-07-25T09:52:17.216Z,68.02
2022-07-25T09:54:55.881Z,70.46
2022-07-25T09:57:46.495Z,69.41
2022-07-25T10:00:26.412Z,69.30
2022-07-25T10:06:50.459Z,69.61
2022-07-25T10:09:21.269Z,69.43
2022-07-25T10:12:10.266Z,70.24
2022-07-25T10:14:43.294Z,71.09
2022-07-25T10:17:31.151Z,70.05
2022-07-25T10:20:01.247Z,70.41
2022-07-25T10:22:56.290Z,69.26
2022-07-25T10:25:31.225Z,69.60
2022-07-25T10:31:14.507Z,69.49
2022-07-25T10:34:00.604Z,68.71
2022-07-25T10:36:48.970Z,66.88
2022-07-25T10:39:29.626Z,64.13
2022-07-25T10:42:01.762Z,63.85
2022-07-25T10:44:58.730Z,62.92
2022-07-25T10:50:53.360Z,62.60
2022-07-25T10:53:51.169Z,62.25
2022-07-25T10:56:27.459Z,63.33
2022-07-25T10:59:32.623Z,64.48
2022-07-25T11:08:19.946Z,64.75
2022-07-25T11:16:35.300Z,64.42
2022-07-25T11:19:19.957Z,64.78
2022-07-25T11:22:01.537Z,63.55
2022-07-25T11:24:44.231Z,62.84
2022-07-25T11:27:28.649Z,62.44
2022-07-25T11:30:20.717Z,61.98
2022-07-25T11:33:00.084Z,60.85
2022-07-25T11:35:55.579Z,60.76
2022-07-25T11:38:31.001Z,61.62
2022-07-25T11:43:53.414Z,61.69
2022-07-25T11:46:34.339Z,61.39
2022-07-25T11:49:15.319Z,61.01
2022-07-25T11:51:48.497Z,60.98
2022-07-25T11:54:36.439Z,61.45
2022-07-25T11:57:29.950Z,60.85
2022-07-25T12:00:24.145Z,60.94
2022-07-25T12:03:19.386Z,59.73
2022-07-25T12:09:05.994Z,59.53
2022-07-25T12:12:09.282Z,57.54
2022-07-25T12:14:53.146Z,56.81
2022-07-25T12:21:04.101Z,55.73
2022-07-25T12:26:26.095Z,54.18
2022-07-25T12:28:56.919Z,54.86
2022-07-25T12:31:43.426Z,54.67
2022-07-25T12:34:18.864Z,55.48
2022-07-25T12:37:04.320Z,56.89
2022-07-25T12:40:00.190Z,57.49
2022-07-25T12:42:42.358Z,57.71
2022-07-25T12:45:32.275Z,57.82
2022-07-25T12:48:14.323Z,58.02
2022-07-25T12:50:50.938Z,57.63
2022-07-25T12:56:47.262Z,56.87
2022-07-25T13:02:20.995Z,55.73
2022-07-25T13:05:04.937Z,56.57
2022-07-25T13:07:38.420Z,56.37
2022-07-25T13:10:37.628Z,57.28
2022-07-25T13:13:18.635Z,56.57
2022-07-25T13:16:07.096Z,56.19
2022-07-25T13:18:44.311Z,55.22
2022-07-25T13:21:25.343Z,56.19
2022-07-25T13:24:05.080Z,56.84
2022-07-25T13:27:06.686Z,56.53
2022-07-25T13:32:33.578Z,54.65
2022-07-25T13:35:20.688Z,53.60
2022-07-25T13:38:06.209Z,53.30
2022-07-25T13:40:59.181Z,53.59
2022-07-25T13:43:39.127Z,54.01
2022-07-25T13:46:27.121Z,54.64
2022-07-25T13:49:24.162Z,52.85
2022-07-25T13:52:28.445Z,52.35
2022-07-25T13:55:01.854Z,51.69
2022-07-25T13:57:45.016Z,51.11
2022-07-25T14:00:17.133Z,50.91
2022-07-25T14:03:19.085Z,51.24
2022-07-25T14:06:06.694Z,50.36
2022-07-25T14:09:09.279Z,50.53
2022-07-25T14:17:41.581Z,50.62
2022-07-25T14:20:35.969Z,50.88
2022-07-25T14:23:13.701Z,51.50
2022-07-25T14:25:54.783Z,51.32
2022-07-25T14:28:52.796Z,51.72
2022-07-25T14:31:23.764Z,51.37
2022-07-25T14:34:01.286Z,50.17
2022-07-25T14:36:43.199Z,50.61
2022-07-25T14:39:24.728Z,50.13
2022-07-25T14:41:59.843Z,50.02
2022-07-25T14:47:36.339Z,50.36
2022-07-25T14:50:24.671Z,50.81
2022-07-25T14:52:59.358Z,51.15
2022-07-25T14:55:35.864Z,52.01
2022-07-25T15:01:39.851Z,53.28
2022-07-25T15:04:14.423Z,52.76
2022-07-25T15:09:41.268Z,52.12
2022-07-25T15:12:28.340Z,52.50
2022-07-25T15:15:16.428Z,52.84
2022-07-25T15:17:49.832Z,53.13
2022-07-25T15:20:30.814Z,53.10
2022-07-25T15:27:18.492Z,51.54
2022-07-25T15:33:33.739Z,51.26
2022-07-25T15:36:10.189Z,51.37
2022-07-25T15:49:26.649Z,54.13
2022-07-25T15:52:20.229Z,54.95
2022-07-25T15:58:07.638Z,54.98
2022-07-25T16:00:49.879Z,54.46
2022-07-25T16:04:27.843Z,54.25
2022-07-25T16:10:31.581Z,54.73
2022-07-25T16:19:33.253Z,55.84
2022-07-25T16:24:53.859Z,57.01
2022-07-25T16:30:41.854Z,56.50
2022-07-25T16:36:34.383Z,56.63
2022-07-25T16:49:25.523Z,58.44
2022-07-25T16:54:59.942Z,58.32
2022-07-25T16:57:26.642Z,57.95
2022-07-25T16:59:53.782Z,58.30
2022-07-25T17:02:20.695Z,57.96
2022-07-25T17:04:53.637Z,58.21
2022-07-25T17:07:21.840Z,58.63
2022-07-25T17:09:48.874Z,58.64
2022-07-25T17:12:15.640Z,58.93
2022-07-25T17:14:42.367Z,59.17
2022-07-25T17:17:09.187Z,59.38
2022-07-25T17:19:36.150Z,59.53
2022-07-25T17:22:04.523Z,59.08
2022-07-25T17:24:33.053Z,59.20
2022-07-25T17:27:00.541Z,59.23
2022-07-25T17:29:36.007Z,59.71
2022-07-25T17:32:02.859Z,59.75
2022-07-25T17:34:30.670Z,59.80
2022-07-25T17:36:57.404Z,59.97
2022-07-25T17:39:25.426Z,60.16
2022-07-25T17:41:54.037Z,60.58
2022-07-25T17:44:20.989Z,60.32
2022-07-25T17:46:47.858Z,60.37
2022-07-25T17:49:14.756Z,60.81
2022-07-25T17:51:42.045Z,60.35
2022-07-25T17:54:10.268Z,60.67
2022-07-25T17:56:40.862Z,60.78
2022-07-25T17:59:09.289Z,60.58
2022-07-25T18:01:37.452Z,61.00
2022-07-25T18:04:06.011Z,61.50
2022-07-25T18:06:33.391Z,61.33
2022-07-25T18:09:00.483Z,61.56
2022-07-25T18:11:27.332Z,61.82
2022-07-25T18:13:54.274Z,62.21
2022-07-25T18:16:22.955Z,62.21
2022-07-25T18:18:49.826Z,62.55
2022-07-25T18:21:16.527Z,62.61
2022-07-25T18:23:43.240Z,62.44
2022-07-25T18:26:12.064Z,62.76
2022-07-25T18:28:38.818Z,62.92
2022-07-25T18:31:05.988Z,63.36
2022-07-25T18:33:34.360Z,63.26
2022-07-25T18:36:06.950Z,63.26
2022-07-25T18:38:34.398Z,63.78
2022-07-25T18:41:26.472Z,63.77
2022-07-25T18:43:48.739Z,64.26
2022-07-25T18:46:15.951Z,64.02
2022-07-25T18:48:45.316Z,64.40
2022-07-25T18:51:12.133Z,64.35
2022-07-25T18:53:39.334Z,64.41
2022-07-25T18:56:06.399Z,64.59
2022-07-25T18:58:33.188Z,65.08
2022-07-25T19:01:01.338Z,64.94
2022-07-25T19:03:28.111Z,64.68
2022-07-25T19:06:01.265Z,64.84
2022-07-25T19:08:32.321Z,65.12
2022-07-25T19:10:59.153Z,65.82
2022-07-25T19:13:48.329Z,65.54
2022-07-25T19:16:13.416Z,65.72
2022-07-25T19:18:41.787Z,66.40
2022-07-25T19:21:10.014Z,66.58
2022-07-25T19:23:37.959Z,66.46
2022-07-25T19:26:04.985Z,66.39
2022-07-25T19:28:31.793Z,66.86
2022-07-25T19:30:58.992Z,67.24
2022-07-25T19:33:25.866Z,67.45
2022-07-25T19:36:02.150Z,67.31
2022-07-25T19:38:30.314Z,67.58
2022-07-25T19:40:57.061Z,67.64
2022-07-25T19:43:27.180Z,67.88
2022-07-25T19:45:55.026Z,68.19
2022-07-25T19:48:21.810Z,68.59
2022-07-25T19:50:48.536Z,68.43
2022-07-25T19:53:15.377Z,68.65
2022-07-25T19:55:44.154Z,68.62
2022-07-25T19:58:10.851Z,68.71
2022-07-25T20:00:38.372Z,68.86
2022-07-25T20:03:05.578Z,69.33
2022-07-25T20:05:32.798Z,69.87
2022-07-25T20:07:59.607Z,69.66
2022-07-25T20:10:26.759Z,69.88
2022-07-25T20:12:59.545Z,70.10
2022-07-25T20:15:28.429Z,70.15
2022-07-25T20:17:56.098Z,70.18
2022-07-25T20:20:22.926Z,70.54
2022-07-25T20:22:49.910Z,70.76
2022-07-25T20:25:16.916Z,70.71
2022-07-25T20:27:43.748Z,70.90
2022-07-25T20:30:12.886Z,70.81
2022-07-25T20:32:39.657Z,71.15
2022-07-25T20:35:07.439Z,71.13
2022-07-25T20:37:34.175Z,71.30
2022-07-25T20:40:08.637Z,71.55
2022-07-25T20:42:36.864Z,71.71
2022-07-25T20:45:04.083Z,71.38
2022-07-25T20:47:35.761Z,71.81
2022-07-25T20:50:03.990Z,72.15
2022-07-25T20:52:30.880Z,72.32
2022-07-25T20:54:57.832Z,72.27
2022-07-25T20:57:24.603Z,72.60
2022-07-25T20:59:51.524Z,72.88
2022-07-25T21:02:18.572Z,73.15
2022-07-25T21:04:59.098Z,73.16
2022-07-25T21:07:25.988Z,73.59
2022-07-25T21:13:57.894Z,73.79
2022-07-25T21:17:01.752Z,74.28
2022-07-25T21:23:39.347Z,74.52
2022-07-25T21:26:37.580Z,75.28
2022-07-25T21:35:25.615Z,75.32
2022-07-25T21:41:05.124Z,75.62
2022-07-25T21:43:56.860Z,76.21
2022-07-25T21:47:03.061Z,76.13
2022-07-25T21:50:19.309Z,76.67
2022-07-25T21:53:38.741Z,76.87
2022-07-25T22:00:33.437Z,77.31
2022-07-25T22:09:51.919Z,77.21
2022-07-25T22:12:23.838Z,77.09
2022-07-25T22:20:56.631Z,77.43
2022-07-25T22:26:40.955Z,78.26
2022-07-25T22:29:55.513Z,78.12
2022-07-25T22:32:31.466Z,78.96
2022-07-25T22:38:04.422Z,78.89
2022-07-25T22:41:04.691Z,79.37
2022-07-25T22:43:58.453Z,79.07
2022-07-25T22:46:48.404Z,79.72
2022-07-25T22:49:41.723Z,79.37
2022-07-25T22:55:20.747Z,79.25
2022-07-25T22:58:19.618Z,79.83
2022-07-25T23:01:02.630Z,79.60
2022-07-25T23:06:37.939Z,79.88
2022-07-25T23:09:24.591Z,80.21
2022-07-25T23:12:12.948Z,79.76
2022-07-25T23:20:35.513Z,79.78
2022-07-25T23:23:39.546Z,79.62
2022-07-25T23:26:12.564Z,79.60
2022-07-25T23:28:44.340Z,79.61
2022-07-25T23:31:20.496Z,79.10
2022-07-25T23:33:51.654Z,78.70
2022-07-25T23:36:33.799Z,79.06
2022-07-25T23:39:26.969Z,79.33
2022-07-25T23:41:56.407Z,79.17
2022-07-25T23:44:23.817Z,79.49
2022-07-25T23:47:21.221Z,79.62
2022-07-25T23:50:10.023Z,79.79
2022-07-25T23:59:08.103Z,79.65
